createdAt,value
2019-02-11T00:02:52.386Z,4.80
2019-02-11T00:06:55.837Z,4.79
2019-02-11T00:11:00.261Z,4.77
2019-02-11T00:15:03.701Z,4.74
2019-02-11T00:19:07.167Z,4.68
2019-02-11T00:23:10.640Z,4.66
2019-02-11T00:27:14.098Z,4.63
2019-02-11T00:31:17.656Z,4.62
2019-02-11T00:35:21.168Z,4.62
2019-02-11T00:39:24.622Z,4.55
2019-02-11T00:43:28.075Z,4.54
2019-02-11T00:47:31.528Z,4.48
2019-02-11T00:51:34.978Z,4.50
2019-02-11T00:55:38.423Z,4.45
2019-02-11T00:59:41.880Z,4.41
2019-02-11T01:03:45.330Z,4.39
2019-02-11T01:07:48.798Z,4.34
2019-02-11T01:11:52.254Z,4.26
2019-02-11T01:15:55.694Z,4.21
2019-02-11T01:19:59.146Z,4.23
2019-02-11T01:24:02.606Z,4.24
2019-02-11T01:28:06.060Z,4.20
2019-02-11T01:32:09.519Z,4.08
2019-02-11T01:36:12.963Z,4.01
2019-02-11T01:40:16.441Z,3.99
2019-02-11T01:44:19.890Z,4.02
2019-02-11T01:48:23.344Z,4.03
2019-02-11T01:52:26.788Z,4.02
2019-02-11T01:56:30.239Z,4.04
2019-02-11T02:00:33.700Z,4.10
2019-02-11T02:04:37.147Z,4.04
2019-02-11T02:08:40.599Z,4.09
2019-02-11T02:12:44.039Z,4.08
2019-02-11T02:16:47.507Z,4.06
2019-02-11T02:20:50.960Z,4.09
2019-02-11T02:24:54.400Z,4.12
2019-02-11T02:28:57.856Z,4.11
2019-02-11T02:33:01.302Z,4.08
2019-02-11T02:37:04.754Z,4.05
2019-02-11T02:41:08.216Z,4.05
2019-02-11T02:45:11.664Z,4.03
2019-02-11T02:49:15.118Z,4.03
2019-02-11T02:53:18.554Z,4.04
2019-02-11T02:57:22.015Z,4.04
2019-02-11T03:01:25.468Z,4.03
2019-02-11T03:05:28.918Z,4.08
2019-02-11T03:09:32.370Z,4.06
2019-02-11T03:13:35.818Z,4.03
2019-02-11T03:17:39.270Z,3.99
2019-02-11T03:21:42.723Z,3.98
2019-02-11T03:25:46.181Z,4.00
2019-02-11T03:29:49.643Z,3.95
2019-02-11T03:33:53.099Z,3.89
2019-02-11T03:37:56.556Z,3.84
2019-02-11T03:42:00.012Z,3.84
2019-02-11T03:46:03.467Z,3.84
2019-02-11T03:50:06.936Z,3.80
2019-02-11T03:54:11.425Z,3.84
2019-02-11T03:58:14.882Z,4.07
2019-02-11T04:02:18.353Z,3.94
2019-02-11T04:06:21.790Z,3.90
2019-02-11T04:10:25.258Z,3.88
2019-02-11T04:14:28.695Z,3.86
2019-02-11T04:18:32.167Z,3.82
2019-02-11T04:22:35.631Z,3.82
2019-02-11T04:26:39.078Z,3.82
2019-02-11T04:30:42.531Z,3.79
2019-02-11T04:34:45.983Z,3.83
2019-02-11T04:38:49.451Z,3.89
2019-02-11T04:42:52.901Z,3.82
2019-02-11T04:46:56.356Z,3.82
2019-02-11T04:50:59.800Z,3.83
2019-02-11T04:55:03.259Z,3.88
2019-02-11T04:59:06.714Z,3.87
2019-02-11T05:03:10.166Z,3.89
2019-02-11T05:07:14.591Z,3.87
2019-02-11T05:11:18.032Z,3.89
2019-02-11T05:15:21.500Z,3.95
2019-02-11T05:19:24.958Z,3.96
2019-02-11T05:23:28.417Z,3.96
2019-02-11T05:27:31.874Z,3.98
2019-02-11T05:31:36.285Z,4.00
2019-02-11T05:35:39.726Z,4.06
2019-02-11T05:39:43.177Z,4.06
2019-02-11T05:43:46.626Z,3.99
2019-02-11T05:47:50.091Z,3.97
2019-02-11T05:51:53.615Z,3.97
2019-02-11T05:55:57.073Z,3.96
2019-02-11T06:00:00.697Z,3.99
2019-02-11T06:04:05.431Z,4.00
2019-02-11T06:08:08.881Z,3.95
2019-02-11T06:12:12.328Z,3.95
2019-02-11T06:16:15.777Z,3.92
2019-02-11T06:20:19.232Z,3.95
2019-02-11T06:24:22.692Z,4.00
2019-02-11T06:28:26.164Z,3.98
2019-02-11T06:32:29.614Z,4.00
2019-02-11T06:36:33.071Z,4.04
2019-02-11T06:40:36.524Z,4.68
2019-02-11T06:44:39.993Z,4.71
2019-02-11T06:48:43.427Z,4.57
2019-02-11T06:52:46.880Z,4.42
2019-02-11T06:56:50.330Z,4.37
2019-02-11T07:00:53.781Z,4.33
2019-02-11T07:04:57.247Z,4.31
2019-02-11T07:09:00.696Z,4.38
2019-02-11T07:13:04.157Z,4.33
2019-02-11T07:17:08.579Z,4.27
2019-02-11T07:21:12.029Z,4.26
2019-02-11T07:25:16.661Z,4.28
2019-02-11T07:29:20.223Z,4.27
2019-02-11T07:33:23.707Z,4.25
2019-02-11T07:37:27.169Z,4.30
2019-02-11T07:41:32.273Z,4.35
2019-02-11T07:45:52.702Z,4.39
2019-02-11T07:49:56.157Z,4.41
2019-02-11T07:53:59.606Z,4.45
2019-02-11T07:58:03.071Z,4.47
2019-02-11T08:02:06.530Z,4.48
2019-02-11T08:06:09.996Z,4.57
2019-02-11T08:10:13.442Z,4.60
2019-02-11T08:14:16.894Z,4.60
2019-02-11T08:18:20.354Z,4.60
2019-02-11T08:22:23.801Z,4.74
2019-02-11T08:26:27.251Z,4.83
2019-02-11T08:30:30.692Z,4.82
2019-02-11T08:34:34.150Z,4.85
2019-02-11T08:38:37.878Z,4.95
2019-02-11T08:42:41.360Z,4.97
2019-02-11T08:46:44.811Z,5.01
2019-02-11T08:50:48.274Z,4.96
2019-02-11T08:54:51.738Z,4.94
2019-02-11T08:58:55.188Z,4.96
2019-02-11T09:02:58.647Z,4.99
2019-02-11T09:07:02.113Z,4.98
2019-02-11T09:11:05.567Z,4.92
2019-02-11T09:15:09.013Z,4.99
2019-02-11T09:19:13.538Z,4.98
2019-02-11T09:23:16.995Z,4.97
2019-02-11T09:27:20.454Z,4.89
2019-02-11T09:31:23.917Z,4.87
2019-02-11T09:35:27.382Z,4.79
2019-02-11T09:39:30.843Z,4.84
2019-02-11T09:43:34.297Z,4.81
2019-02-11T09:47:37.755Z,4.67
2019-02-11T09:51:42.197Z,4.65
2019-02-11T09:55:45.638Z,4.67
2019-02-11T09:59:49.093Z,4.76
2019-02-11T10:03:52.550Z,4.81
2019-02-11T10:07:56.013Z,4.80
2019-02-11T10:11:59.467Z,4.78
2019-02-11T10:16:02.906Z,4.72
2019-02-11T10:20:06.359Z,4.72
2019-02-11T10:24:09.815Z,4.63
2019-02-11T10:28:13.278Z,4.64
2019-02-11T10:32:16.735Z,4.63
2019-02-11T10:36:20.180Z,4.66
2019-02-11T10:40:23.634Z,4.59
2019-02-11T10:44:27.093Z,4.62
2019-02-11T10:48:30.557Z,4.72
2019-02-11T10:52:34.002Z,4.73
2019-02-11T10:56:37.480Z,4.82
2019-02-11T11:00:41.897Z,4.93
2019-02-11T11:04:45.361Z,5.07
2019-02-11T11:08:48.809Z,5.08
2019-02-11T11:12:52.263Z,5.08
2019-02-11T11:16:55.713Z,5.02
2019-02-11T11:20:59.167Z,4.99
2019-02-11T11:25:02.634Z,5.00
2019-02-11T11:29:06.195Z,4.96
2019-02-11T11:33:09.625Z,4.89
2019-02-11T11:37:13.411Z,4.88
2019-02-11T11:41:16.915Z,4.91
2019-02-11T11:45:20.377Z,4.92
2019-02-11T11:49:23.832Z,4.99
2019-02-11T11:53:27.281Z,5.11
2019-02-11T11:57:30.741Z,5.08
2019-02-11T12:01:34.209Z,5.04
2019-02-11T12:05:37.652Z,5.08
2019-02-11T12:09:43.789Z,5.19
2019-02-11T12:13:46.254Z,5.38
2019-02-11T12:17:49.716Z,5.62
2019-02-11T12:21:53.173Z,5.74
2019-02-11T12:25:56.652Z,5.93
2019-02-11T12:30:00.392Z,5.99
2019-02-11T12:34:03.916Z,6.26
2019-02-11T12:38:07.413Z,6.58
2019-02-11T12:42:10.834Z,6.67
2019-02-11T12:46:14.302Z,6.80
2019-02-11T12:50:17.810Z,6.89
2019-02-11T12:54:21.284Z,6.94
2019-02-11T12:58:24.748Z,6.96
2019-02-11T13:02:28.208Z,7.02
2019-02-11T13:06:31.666Z,7.24
2019-02-11T13:10:35.133Z,7.18
2019-02-11T13:14:38.584Z,7.18
2019-02-11T13:18:42.103Z,7.14
2019-02-11T13:22:45.580Z,7.17
2019-02-11T13:26:49.024Z,7.18
2019-02-11T13:30:52.479Z,7.18
2019-02-11T13:34:55.922Z,7.16
2019-02-11T13:38:59.382Z,7.15
2019-02-11T13:43:03.107Z,7.20
2019-02-11T13:47:06.593Z,7.07
2019-02-11T13:51:10.036Z,6.98
2019-02-11T13:55:13.498Z,6.85
2019-02-11T13:59:16.953Z,6.93
2019-02-11T14:03:20.625Z,6.99
2019-02-11T14:07:24.144Z,7.02
2019-02-11T14:11:27.592Z,7.17
2019-02-11T14:15:31.052Z,7.14
2019-02-11T14:19:34.495Z,7.07
2019-02-11T14:23:37.954Z,6.95
2019-02-11T14:27:41.407Z,6.61
2019-02-11T14:31:44.847Z,6.53
2019-02-11T14:35:48.439Z,6.63
2019-02-11T14:39:51.996Z,6.79
2019-02-11T14:43:55.510Z,6.87
2019-02-11T14:47:59.052Z,6.89
2019-02-11T14:52:02.558Z,6.86
2019-02-11T14:56:06.079Z,6.69
2019-02-11T15:00:11.172Z,6.61
2019-02-11T15:04:14.620Z,6.58
2019-02-11T15:08:18.086Z,6.48
2019-02-11T15:12:21.539Z,6.42
2019-02-11T15:16:25.010Z,6.35
2019-02-11T15:20:28.467Z,6.28
2019-02-11T15:24:31.930Z,6.17
2019-02-11T15:28:35.379Z,6.23
2019-02-11T15:32:38.823Z,6.21
2019-02-11T15:36:42.282Z,6.19
2019-02-11T15:40:45.730Z,6.20
2019-02-11T15:44:49.182Z,6.17
2019-02-11T15:48:52.649Z,6.13
2019-02-11T15:52:56.100Z,6.05
2019-02-11T15:56:59.551Z,6.00
2019-02-11T16:01:03.003Z,5.95
2019-02-11T16:05:06.458Z,5.88
2019-02-11T16:09:09.914Z,5.84
2019-02-11T16:13:13.356Z,5.79
2019-02-11T16:17:16.826Z,5.74
2019-02-11T16:21:20.275Z,5.64
2019-02-11T16:25:23.725Z,5.55
2019-02-11T16:29:27.180Z,5.51
2019-02-11T16:33:30.638Z,5.52
2019-02-11T16:37:34.091Z,5.53
2019-02-11T16:41:37.553Z,5.53
2019-02-11T16:45:41.993Z,5.61
2019-02-11T16:49:45.437Z,5.62
2019-02-11T16:53:48.890Z,5.64
2019-02-11T16:57:52.350Z,5.63
2019-02-11T17:01:55.808Z,5.68
2019-02-11T17:05:59.257Z,5.60
2019-02-11T17:10:02.714Z,5.51
2019-02-11T17:14:06.161Z,5.40
2019-02-11T17:18:09.614Z,5.29
2019-02-11T17:22:13.095Z,5.25
2019-02-11T17:26:16.556Z,5.25
2019-02-11T17:30:20.006Z,5.28
2019-02-11T17:34:23.455Z,5.17
2019-02-11T17:38:26.909Z,5.08
2019-02-11T17:42:30.373Z,5.04
2019-02-11T17:46:33.833Z,5.09
2019-02-11T17:50:37.289Z,5.08
2019-02-11T17:54:40.735Z,4.98
2019-02-11T17:58:45.160Z,4.97
2019-02-11T18:02:49.584Z,4.99
2019-02-11T18:06:53.031Z,4.95
2019-02-11T18:10:56.490Z,4.93
2019-02-11T18:14:59.940Z,4.88
2019-02-11T18:19:03.404Z,4.82
2019-02-11T18:23:06.859Z,4.72
2019-02-11T18:27:10.330Z,4.60
2019-02-11T18:31:13.788Z,4.42
2019-02-11T18:35:17.239Z,4.32
2019-02-11T18:39:20.697Z,4.23
2019-02-11T18:43:24.157Z,4.15
2019-02-11T18:47:27.620Z,4.30
2019-02-11T18:51:31.058Z,4.16
2019-02-11T18:55:34.510Z,4.05
2019-02-11T18:59:37.966Z,3.94
2019-02-11T19:03:41.430Z,3.91
2019-02-11T19:07:44.896Z,4.01
2019-02-11T19:11:48.357Z,4.07
2019-02-11T19:15:51.811Z,4.05
2019-02-11T19:19:55.275Z,4.02
2019-02-11T19:23:58.738Z,3.97
2019-02-11T19:28:02.199Z,3.90
2019-02-11T19:32:05.639Z,3.87
2019-02-11T19:36:09.102Z,3.85
2019-02-11T19:40:12.565Z,3.82
2019-02-11T19:44:16.020Z,3.78
2019-02-11T19:48:19.484Z,3.85
2019-02-11T19:52:22.933Z,3.99
2019-02-11T19:56:26.393Z,4.12
2019-02-11T20:00:31.765Z,4.21
2019-02-11T20:04:35.012Z,4.19
2019-02-11T20:08:38.483Z,4.11
2019-02-11T20:12:41.955Z,4.01
2019-02-11T20:16:45.420Z,3.99
2019-02-11T20:20:48.885Z,3.96
2019-02-11T20:24:52.347Z,3.88
2019-02-11T20:28:55.815Z,3.80
2019-02-11T20:32:59.257Z,3.70
2019-02-11T20:37:02.715Z,3.61
2019-02-11T20:41:06.173Z,3.51
2019-02-11T20:45:09.636Z,3.46
2019-02-11T20:49:13.102Z,3.39
2019-02-11T20:53:16.553Z,3.32
2019-02-11T20:57:20.019Z,3.26
2019-02-11T21:01:24.292Z,3.19
2019-02-11T21:05:27.752Z,3.15
2019-02-11T21:09:31.231Z,3.10
2019-02-11T21:13:34.680Z,3.07
2019-02-11T21:17:38.140Z,3.03
2019-02-11T21:21:41.596Z,2.96
2019-02-11T21:25:45.058Z,2.88
2019-02-11T21:29:48.528Z,2.83
2019-02-11T21:33:51.976Z,2.79
2019-02-11T21:37:55.453Z,2.87
2019-02-11T21:41:58.891Z,2.97
2019-02-11T21:46:02.354Z,2.86
2019-02-11T21:50:06.884Z,2.77
2019-02-11T21:54:10.324Z,2.69
2019-02-11T21:58:13.785Z,2.62
2019-02-11T22:02:17.249Z,2.56
2019-02-11T22:06:20.707Z,2.52
2019-02-11T22:10:24.169Z,2.51
2019-02-11T22:14:27.626Z,2.51
2019-02-11T22:18:31.077Z,2.54
2019-02-11T22:22:34.542Z,2.52
2019-02-11T22:26:37.991Z,2.49
2019-02-11T22:30:41.472Z,2.45
2019-02-11T22:34:44.916Z,2.40
2019-02-11T22:38:48.375Z,2.35
2019-02-11T22:42:51.831Z,2.34
2019-02-11T22:46:55.287Z,2.31
2019-02-11T22:50:58.749Z,2.29
2019-02-11T22:55:02.210Z,2.29
2019-02-11T22:59:05.682Z,2.26
2019-02-11T23:03:09.146Z,2.25
2019-02-11T23:07:12.599Z,2.27
2019-02-11T23:11:16.048Z,2.28
2019-02-11T23:15:19.509Z,2.31
2019-02-11T23:19:22.977Z,2.30
2019-02-11T23:23:26.433Z,2.27
2019-02-11T23:27:29.912Z,2.23
2019-02-11T23:31:33.355Z,2.18
2019-02-11T23:35:36.817Z,2.15
2019-02-11T23:39:40.276Z,2.11
2019-02-11T23:43:43.739Z,2.11
2019-02-11T23:47:47.208Z,2.18
2019-02-11T23:51:50.656Z,2.26
2019-02-11T23:55:54.118Z,2.38
2019-02-11T23:59:57.575Z,2.42
